Blue Star Naxos — SZUI — position and weather

sailwx.info

Track history (hours):
 
Tides and Currents Weather Stations Pressure Air Temp Water Temp Dewpoint Dewpoint Depression Visibility Wind Speed Wind Dir Waves Ship Positions

Blue Star Naxos

Last reported at 2015-Apr-21 02:33 UTC. Time now 2015-Apr-21 03:02 UTC.
Position N 36°42' E 025°55'.

Length 124 m; draft 5 m.

Type: Passenger vessel. MMSI: 239923000.

Date/timePositionNaut miles runAvg speedWind from/ knotsBaromVisibWave heightAir tempDewpointWater temp
2015-Apr-21 02:33N 36°42' E 025°55'11 5.4
2015-Apr-21 00:33N 36°42' E 026°09'1716.9
2015-Apr-20 23:33N 36°45' E 025°48'7 7.3
2015-Apr-20 22:33N 36°52' E 025°49'1717.0
2015-Apr-20 21:33N 37°08' E 025°42'1615.7
2015-Apr-20 20:33N 37°06' E 025°22'1211.8
2015-Apr-20 19:33N 37°07' E 025°08'8 8.1
2015-Apr-20 18:33N 37°11' E 024°59'6421.4
2015-Apr-20 15:33N 37°39' E 023°46'1918.8
2015-Apr-20 14:33N 37°56' E 023°38'1 0.5
2015-Apr-20 13:33N 37°57' E 023°38'0 0.0
2015-Apr-20 12:33N 37°57' E 023°38'1312.9
2015-Apr-20 11:33N 37°45' E 023°44'5226.2
2015-Apr-20 09:33N 37°21' E 024°43'1413.5
2015-Apr-20 08:33N 37°13' E 024°56'1312.6
2015-Apr-20 07:33N 37°05' E 025°09'1110.8
2015-Apr-20 06:34N 37°06' E 025°22'6 6.2
2015-Apr-20 05:33N 37°00' E 025°20'1212.1
2015-Apr-20 04:32N 36°52' E 025°31'1010.5
2015-Apr-20 03:33N 36°54' E 025°43'7 2.1
2015-Apr-20 00:17N 36°50' E 025°51'1317.3
2015-Apr-19 23:32N 36°56' E 025°36'9 8.1
2015-Apr-19 22:25N 36°54' E 025°25'1214.5
2015-Apr-19 21:34N 37°06' E 025°22'1110.5
2015-Apr-19 20:33N 37°08' E 025°09'7 6.7
2015-Apr-19 19:33N 37°13' E 025°04'1514.5
2015-Apr-19 18:33N 37°26' E 024°57'5919.2
2015-Apr-19 15:30N 37°39' E 023°45'18 5.4
2015-Apr-19 12:13N 37°56' E 023°38'1320.0
2015-Apr-19 11:33N 37°44' E 023°44'6521.6
2015-Apr-19 08:33N 37°13' E 024°56'1210.0
2015-Apr-19 07:23N 37°07' E 025°08'1113.5
2015-Apr-19 06:33N 37°06' E 025°22'1514.4
2015-Apr-19 05:31N 36°51' E 025°22'2321.3
2015-Apr-19 04:25N 36°28' E 025°21'6 6.8
2015-Apr-19 03:33N 36°23' E 025°26'0 0.0
2015-Apr-19 02:29N 36°23' E 025°26'0 0.0
2015-Apr-19 01:28N 36°23' E 025°26'0 0.0
2015-Apr-19 00:27N 36°23' E 025°26'0 0.0
2015-Apr-18 23:33N 36°23' E 025°26'1 1.1
2015-Apr-18 22:33N 36°24' E 025°25'1817.3
2015-Apr-18 21:32N 36°42' E 025°25'2020.7
2015-Apr-18 20:33N 37°01' E 025°18'10 8.4
2015-Apr-18 19:25N 37°08' E 025°10'910.6
2015-Apr-18 18:33N 37°08' E 024°58'6521.6
2015-Apr-18 15:33N 37°38' E 023°46'1919.5
2015-Apr-18 14:33N 37°56' E 023°38'1 0.5
2015-Apr-18 13:33N 37°57' E 023°38'0 0.0
2015-Apr-18 12:33N 37°57' E 023°38'1111.3
2015-Apr-18 11:34N 37°46' E 023°43'6421.3
2015-Apr-18 08:34N 37°15' E 024°53'1615.7
2015-Apr-18 07:33N 37°05' E 025°09'1110.4
2015-Apr-18 06:32N 37°06' E 025°22'6 6.6
2015-Apr-18 05:33N 37°00' E 025°20'11 9.3
2015-Apr-18 04:23N 36°53' E 025°30'1112.6
2015-Apr-18 03:33N 36°54' E 025°43'7 1.8
2015-Apr-17 23:31N 36°50' E 025°50'1212.6
2015-Apr-17 22:33N 36°54' E 025°36'12 9.6
2015-Apr-17 21:18N 36°58' E 025°22'911.5
2015-Apr-17 20:32N 37°06' E 025°22'1110.6
2015-Apr-17 19:30N 37°05' E 025°08'1211.4
2015-Apr-17 18:29N 37°11' E 024°56'6221.1
2015-Apr-17 15:33N 37°39' E 023°46'1818.7
2015-Apr-17 14:33N 37°57' E 023°38'0 0.3
2015-Apr-17 13:33N 37°57' E 023°38'0 0.0
2015-Apr-17 12:33N 37°57' E 023°38'1010.0
2015-Apr-17 11:33N 37°47' E 023°42'6621.6
2015-Apr-17 08:29N 37°14' E 024°54'1515.6
2015-Apr-17 07:33N 37°05' E 025°09'1110.4
2015-Apr-17 06:32N 37°06' E 025°22'1111.5
2015-Apr-17 05:34N 37°13' E 025°34'1817.5
2015-Apr-17 04:32N 37°01' E 025°51'11 1.8
2015-Apr-16 22:33N 37°09' E 025°41'1515.5
2015-Apr-16 21:33N 37°06' E 025°22'1110.3
2015-Apr-16 20:30N 37°07' E 025°09'6 6.5
2015-Apr-16 19:31N 37°13' E 025°04'1514.8
2015-Apr-16 18:30N 37°26' E 024°57'5819.8
2015-Apr-16 15:33N 37°39' E 023°45'18 5.3
2015-Apr-16 12:08N 37°57' E 023°38'915.4
2015-Apr-16 11:33N 37°48' E 023°41'6621.8
2015-Apr-16 08:33N 37°15' E 024°53'1616.4
2015-Apr-16 07:33N 37°05' E 025°09'1110.7
2015-Apr-16 06:33N 37°06' E 025°22'1010.4
2015-Apr-16 05:33N 37°13' E 025°32'1918.0
2015-Apr-16 04:31N 37°02' E 025°51'1111.5
2015-Apr-16 03:33N 36°56' E 026°03'3 0.7
2015-Apr-15 23:18N 36°58' E 025°60'4 5.2
2015-Apr-15 22:34N 36°56' E 025°55'1817.6
2015-Apr-15 21:33N 37°09' E 025°40'1514.6
2015-Apr-15 20:33N 37°06' E 025°22'11 7.6
2015-Apr-15 19:10N 37°05' E 025°09'1016.3
2015-Apr-15 18:33N 37°11' E 024°59'6621.3
2015-Apr-15 15:28N 37°40' E 023°44'18 5.4
2015-Apr-15 12:14N 37°57' E 023°38'1217.0
2015-Apr-15 11:33N 37°46' E 023°43'6521.5
2015-Apr-15 08:33N 37°14' E 024°54'1514.8
2015-Apr-15 07:33N 37°05' E 025°09'1110.7
2015-Apr-15 06:33N 37°06' E 025°22'6 5.9
2015-Apr-15 05:33N 37°01' E 025°19'1311.6
2015-Apr-15 04:27N 36°52' E 025°31'1112.0
2015-Apr-15 03:33N 36°54' E 025°44'3 0.9
2015-Apr-14 23:29N 36°55' E 025°40'9 9.5
2015-Apr-14 22:33N 36°52' E 025°30'1514.7
2015-Apr-14 21:33N 37°03' E 025°18'7 7.2
2015-Apr-14 20:34N 37°10' E 025°15'8 7.0
2015-Apr-14 19:27N 37°11' E 025°05'1718.9
2015-Apr-14 18:34N 37°26' E 024°57'5718.9
2015-Apr-14 15:33N 37°39' E 023°47'1918.9
2015-Apr-14 14:34N 37°56' E 023°38'1 0.5
2015-Apr-14 13:34N 37°57' E 023°38'0 0.0
2015-Apr-14 12:33N 37°57' E 023°38'8 8.2
2015-Apr-14 11:33N 37°49' E 023°41'6521.7
2015-Apr-14 08:33N 37°15' E 024°52'1717.1
2015-Apr-14 07:33N 37°05' E 025°09'1110.6
2015-Apr-14 06:33N 37°06' E 025°22'1111.3
2015-Apr-14 05:33N 37°13' E 025°34'1818.0
2015-Apr-14 04:33N 37°01' E 025°51'1211.5
2015-Apr-14 03:31N 36°55' E 026°04'19 5.8
2015-Apr-14 00:16N 36°39' E 026°17'1921.7
2015-Apr-13 23:23N 36°56' E 026°06'810.0
2015-Apr-13 22:33N 36°55' E 025°56'1312.5
2015-Apr-13 21:33N 37°05' E 025°47'1616.1
2015-Apr-13 20:33N 37°12' E 025°28'1212.3
2015-Apr-13 19:33N 37°10' E 025°13'1211.9
2015-Apr-13 18:34N 37°11' E 024°59'5221.9
2015-Apr-13 16:10N 37°35' E 023°60'1321.7
2015-Apr-13 15:33N 37°40' E 023°44'1717.4
2015-Apr-13 14:33N 37°56' E 023°38'1 0.6
2015-Apr-13 13:33N 37°57' E 023°38'0 0.0
2015-Apr-13 12:33N 37°57' E 023°38'8 8.0
2015-Apr-13 11:33N 37°49' E 023°41'2321.4
2015-Apr-13 10:28N 37°35' E 024°04'4222.2
2015-Apr-13 08:33N 37°15' E 024°52'1716.3
2015-Apr-13 07:30N 37°05' E 025°09'1010.9
2015-Apr-13 06:33N 37°07' E 025°22'6 6.1
2015-Apr-13 05:34N 37°01' E 025°19'1211.0
2015-Apr-13 04:26N 36°52' E 025°30'1213.3
2015-Apr-13 03:32N 36°53' E 025°45'3 0.1
2015-Apr-11 23:32N 36°54' E 025°42'11 9.2
2015-Apr-11 22:23N 36°52' E 025°29'1619.1
2015-Apr-11 21:34N 37°06' E 025°20'1 1.3
2015-Apr-11 20:34N 37°07' E 025°21'1210.7
2015-Apr-11 19:25N 37°09' E 025°06'1921.8
2015-Apr-11 18:33N 37°26' E 024°57'5719.1
2015-Apr-11 15:33N 37°39' E 023°46'1919.1
2015-Apr-11 14:33N 37°57' E 023°38'0 0.4
2015-Apr-11 13:33N 37°57' E 023°38'0 0.5
2015-Apr-11 12:33N 37°56' E 023°38'1918.9
2015-Apr-11 11:33N 37°40' E 023°50'4521.9
2015-Apr-11 09:30N 37°23' E 024°42'2121.7
2015-Apr-11 08:33N 37°09' E 025°02'8 7.5
2015-Apr-11 07:26N 37°10' E 025°13'7 8.1
2015-Apr-11 06:33N 37°06' E 025°21'1717.2
2015-Apr-11 05:33N 36°53' E 025°34'1311.4
2015-Apr-11 04:23N 36°50' E 025°50'1214.4
2015-Apr-11 03:33N 36°55' E 025°37'  
Track history (hours):
 
Tides and Currents Weather Stations Pressure Air Temp Water Temp Dewpoint Dewpoint Depression Visibility Wind Speed Wind Dir Waves Ship Positions

Blue Star Naxos

Last reported at 2015-Apr-21 02:33 UTC. Time now 2015-Apr-21 03:02 UTC.
Position N 36°42' E 025°55'.

Length 124 m; draft 5 m.

Type: Passenger vessel. MMSI: 239923000.

Date/timePositionNaut miles runAvg speedWind from/ knotsBaromVisibWave heightAir tempDewpointWater temp
2015-Apr-21 02:33N 36°42' E 025°55'11 5.4
2015-Apr-21 00:33N 36°42' E 026°09'1716.9
2015-Apr-20 23:33N 36°45' E 025°48'7 7.3
2015-Apr-20 22:33N 36°52' E 025°49'1717.0
2015-Apr-20 21:33N 37°08' E 025°42'1615.7
2015-Apr-20 20:33N 37°06' E 025°22'1211.8
2015-Apr-20 19:33N 37°07' E 025°08'8 8.1
2015-Apr-20 18:33N 37°11' E 024°59'6421.4
2015-Apr-20 15:33N 37°39' E 023°46'1918.8
2015-Apr-20 14:33N 37°56' E 023°38'1 0.5
2015-Apr-20 13:33N 37°57' E 023°38'0 0.0
2015-Apr-20 12:33N 37°57' E 023°38'1312.9
2015-Apr-20 11:33N 37°45' E 023°44'5226.2
2015-Apr-20 09:33N 37°21' E 024°43'1413.5
2015-Apr-20 08:33N 37°13' E 024°56'1312.6
2015-Apr-20 07:33N 37°05' E 025°09'1110.8
2015-Apr-20 06:34N 37°06' E 025°22'6 6.2
2015-Apr-20 05:33N 37°00' E 025°20'1212.1
2015-Apr-20 04:32N 36°52' E 025°31'1010.5
2015-Apr-20 03:33N 36°54' E 025°43'7 2.1
2015-Apr-20 00:17N 36°50' E 025°51'1317.3
2015-Apr-19 23:32N 36°56' E 025°36'9 8.1
2015-Apr-19 22:25N 36°54' E 025°25'1214.5
2015-Apr-19 21:34N 37°06' E 025°22'1110.5
2015-Apr-19 20:33N 37°08' E 025°09'7 6.7
2015-Apr-19 19:33N 37°13' E 025°04'1514.5
2015-Apr-19 18:33N 37°26' E 024°57'5919.2
2015-Apr-19 15:30N 37°39' E 023°45'18 5.4
2015-Apr-19 12:13N 37°56' E 023°38'1320.0
2015-Apr-19 11:33N 37°44' E 023°44'6521.6
2015-Apr-19 08:33N 37°13' E 024°56'1210.0
2015-Apr-19 07:23N 37°07' E 025°08'1113.5
2015-Apr-19 06:33N 37°06' E 025°22'1514.4
2015-Apr-19 05:31N 36°51' E 025°22'2321.3
2015-Apr-19 04:25N 36°28' E 025°21'6 6.8
2015-Apr-19 03:33N 36°23' E 025°26'0 0.0
2015-Apr-19 02:29N 36°23' E 025°26'0 0.0
2015-Apr-19 01:28N 36°23' E 025°26'0 0.0
2015-Apr-19 00:27N 36°23' E 025°26'0 0.0
2015-Apr-18 23:33N 36°23' E 025°26'1 1.1
2015-Apr-18 22:33N 36°24' E 025°25'1817.3
2015-Apr-18 21:32N 36°42' E 025°25'2020.7
2015-Apr-18 20:33N 37°01' E 025°18'10 8.4
2015-Apr-18 19:25N 37°08' E 025°10'910.6
2015-Apr-18 18:33N 37°08' E 024°58'6521.6
2015-Apr-18 15:33N 37°38' E 023°46'1919.5
2015-Apr-18 14:33N 37°56' E 023°38'1 0.5
2015-Apr-18 13:33N 37°57' E 023°38'0 0.0
2015-Apr-18 12:33N 37°57' E 023°38'1111.3
2015-Apr-18 11:34N 37°46' E 023°43'6421.3
2015-Apr-18 08:34N 37°15' E 024°53'1615.7
2015-Apr-18 07:33N 37°05' E 025°09'1110.4
2015-Apr-18 06:32N 37°06' E 025°22'6 6.6
2015-Apr-18 05:33N 37°00' E 025°20'11 9.3
2015-Apr-18 04:23N 36°53' E 025°30'1112.6
2015-Apr-18 03:33N 36°54' E 025°43'7 1.8
2015-Apr-17 23:31N 36°50' E 025°50'1212.6
2015-Apr-17 22:33N 36°54' E 025°36'12 9.6
2015-Apr-17 21:18N 36°58' E 025°22'911.5
2015-Apr-17 20:32N 37°06' E 025°22'1110.6
2015-Apr-17 19:30N 37°05' E 025°08'1211.4
2015-Apr-17 18:29N 37°11' E 024°56'6221.1
2015-Apr-17 15:33N 37°39' E 023°46'1818.7
2015-Apr-17 14:33N 37°57' E 023°38'0 0.3
2015-Apr-17 13:33N 37°57' E 023°38'0 0.0
2015-Apr-17 12:33N 37°57' E 023°38'1010.0
2015-Apr-17 11:33N 37°47' E 023°42'6621.6
2015-Apr-17 08:29N 37°14' E 024°54'1515.6
2015-Apr-17 07:33N 37°05' E 025°09'1110.4
2015-Apr-17 06:32N 37°06' E 025°22'1111.5
2015-Apr-17 05:34N 37°13' E 025°34'1817.5
2015-Apr-17 04:32N 37°01' E 025°51'11 1.8
2015-Apr-16 22:33N 37°09' E 025°41'1515.5
2015-Apr-16 21:33N 37°06' E 025°22'1110.3
2015-Apr-16 20:30N 37°07' E 025°09'6 6.5
2015-Apr-16 19:31N 37°13' E 025°04'1514.8
2015-Apr-16 18:30N 37°26' E 024°57'5819.8
2015-Apr-16 15:33N 37°39' E 023°45'18 5.3
2015-Apr-16 12:08N 37°57' E 023°38'915.4
2015-Apr-16 11:33N 37°48' E 023°41'6621.8
2015-Apr-16 08:33N 37°15' E 024°53'1616.4
2015-Apr-16 07:33N 37°05' E 025°09'1110.7
2015-Apr-16 06:33N 37°06' E 025°22'1010.4
2015-Apr-16 05:33N 37°13' E 025°32'1918.0
2015-Apr-16 04:31N 37°02' E 025°51'1111.5
2015-Apr-16 03:33N 36°56' E 026°03'3 0.7
2015-Apr-15 23:18N 36°58' E 025°60'4 5.2
2015-Apr-15 22:34N 36°56' E 025°55'1817.6
2015-Apr-15 21:33N 37°09' E 025°40'1514.6
2015-Apr-15 20:33N 37°06' E 025°22'11 7.6
2015-Apr-15 19:10N 37°05' E 025°09'1016.3
2015-Apr-15 18:33N 37°11' E 024°59'6621.3
2015-Apr-15 15:28N 37°40' E 023°44'18 5.4
2015-Apr-15 12:14N 37°57' E 023°38'1217.0
2015-Apr-15 11:33N 37°46' E 023°43'6521.5
2015-Apr-15 08:33N 37°14' E 024°54'1514.8
2015-Apr-15 07:33N 37°05' E 025°09'1110.7
2015-Apr-15 06:33N 37°06' E 025°22'6 5.9
2015-Apr-15 05:33N 37°01' E 025°19'1311.6
2015-Apr-15 04:27N 36°52' E 025°31'1112.0
2015-Apr-15 03:33N 36°54' E 025°44'3 0.9
2015-Apr-14 23:29N 36°55' E 025°40'9 9.5
2015-Apr-14 22:33N 36°52' E 025°30'1514.7
2015-Apr-14 21:33N 37°03' E 025°18'7 7.2
2015-Apr-14 20:34N 37°10' E 025°15'8 7.0
2015-Apr-14 19:27N 37°11' E 025°05'1718.9
2015-Apr-14 18:34N 37°26' E 024°57'5718.9
2015-Apr-14 15:33N 37°39' E 023°47'1918.9
2015-Apr-14 14:34N 37°56' E 023°38'1 0.5
2015-Apr-14 13:34N 37°57' E 023°38'0 0.0
2015-Apr-14 12:33N 37°57' E 023°38'8 8.2
2015-Apr-14 11:33N 37°49' E 023°41'6521.7
2015-Apr-14 08:33N 37°15' E 024°52'1717.1
2015-Apr-14 07:33N 37°05' E 025°09'1110.6
2015-Apr-14 06:33N 37°06' E 025°22'1111.3
2015-Apr-14 05:33N 37°13' E 025°34'1818.0
2015-Apr-14 04:33N 37°01' E 025°51'1211.5
2015-Apr-14 03:31N 36°55' E 026°04'19 5.8
2015-Apr-14 00:16N 36°39' E 026°17'1921.7
2015-Apr-13 23:23N 36°56' E 026°06'810.0
2015-Apr-13 22:33N 36°55' E 025°56'1312.5
2015-Apr-13 21:33N 37°05' E 025°47'1616.1
2015-Apr-13 20:33N 37°12' E 025°28'1212.3
2015-Apr-13 19:33N 37°10' E 025°13'1211.9
2015-Apr-13 18:34N 37°11' E 024°59'5221.9
2015-Apr-13 16:10N 37°35' E 023°60'1321.7
2015-Apr-13 15:33N 37°40' E 023°44'1717.4
2015-Apr-13 14:33N 37°56' E 023°38'1 0.6
2015-Apr-13 13:33N 37°57' E 023°38'0 0.0
2015-Apr-13 12:33N 37°57' E 023°38'8 8.0
2015-Apr-13 11:33N 37°49' E 023°41'2321.4
2015-Apr-13 10:28N 37°35' E 024°04'4222.2
2015-Apr-13 08:33N 37°15' E 024°52'1716.3
2015-Apr-13 07:30N 37°05' E 025°09'1010.9
2015-Apr-13 06:33N 37°07' E 025°22'6 6.1
2015-Apr-13 05:34N 37°01' E 025°19'1211.0
2015-Apr-13 04:26N 36°52' E 025°30'1213.3
2015-Apr-13 03:32N 36°53' E 025°45'3 0.1
2015-Apr-11 23:32N 36°54' E 025°42'11 9.2
2015-Apr-11 22:23N 36°52' E 025°29'1619.1
2015-Apr-11 21:34N 37°06' E 025°20'1 1.3
2015-Apr-11 20:34N 37°07' E 025°21'1210.7
2015-Apr-11 19:25N 37°09' E 025°06'1921.8
2015-Apr-11 18:33N 37°26' E 024°57'5719.1
2015-Apr-11 15:33N 37°39' E 023°46'1919.1
2015-Apr-11 14:33N 37°57' E 023°38'0 0.4
2015-Apr-11 13:33N 37°57' E 023°38'0 0.5
2015-Apr-11 12:33N 37°56' E 023°38'1918.9
2015-Apr-11 11:33N 37°40' E 023°50'4521.9
2015-Apr-11 09:30N 37°23' E 024°42'2121.7
2015-Apr-11 08:33N 37°09' E 025°02'8 7.5
2015-Apr-11 07:26N 37°10' E 025°13'7 8.1
2015-Apr-11 06:33N 37°06' E 025°21'1717.2
2015-Apr-11 05:33N 36°53' E 025°34'1311.4
2015-Apr-11 04:23N 36°50' E 025°50'1214.4
2015-Apr-11 03:33N 36°55' E 025°37'  

Dump ship's entire track history